createdAt,value
2017-11-17T00:02:26.221Z,28.60
2017-11-17T00:04:53.908Z,28.58
2017-11-17T00:07:21.639Z,26.75
2017-11-17T00:09:49.327Z,24.83
2017-11-17T00:12:17.035Z,26.87
2017-11-17T00:14:44.900Z,25.90
2017-11-17T00:17:13.023Z,28.33
2017-11-17T00:19:40.768Z,26.90
2017-11-17T00:22:08.644Z,28.05
2017-11-17T00:24:36.401Z,25.85
2017-11-17T00:27:04.150Z,30.17
2017-11-17T00:29:31.847Z,29.35
2017-11-17T00:31:59.568Z,27.10
2017-11-17T00:34:27.271Z,23.67
2017-11-17T00:36:54.961Z,26.12
2017-11-17T00:39:23.410Z,26.30
2017-11-17T00:41:51.096Z,27.20
2017-11-17T00:44:18.893Z,28.23
2017-11-17T00:46:46.569Z,27.52
2017-11-17T00:49:14.294Z,28.40
2017-11-17T00:51:42.017Z,27.08
2017-11-17T00:54:09.777Z,27.90
2017-11-17T00:56:37.599Z,28.08
2017-11-17T00:59:05.326Z,27.48
2017-11-17T01:01:33.329Z,26.65
2017-11-17T01:04:01.880Z,27.55
2017-11-17T01:06:29.697Z,28.38
2017-11-17T01:08:58.310Z,28.98
2017-11-17T01:11:26.135Z,26.90
2017-11-17T01:13:54.175Z,28.92
2017-11-17T01:16:21.915Z,25.67
2017-11-17T01:18:49.857Z,26.52
2017-11-17T01:21:17.752Z,28.75
2017-11-17T01:23:45.477Z,28.38
2017-11-17T01:26:13.284Z,27.50
2017-11-17T01:28:41.065Z,28.58
2017-11-17T01:31:08.906Z,27.02
2017-11-17T01:33:37.361Z,27.77
2017-11-17T01:36:05.038Z,28.65
2017-11-17T01:38:32.814Z,28.60
2017-11-17T01:41:01.224Z,27.05
2017-11-17T01:43:29.726Z,28.00
2017-11-17T01:45:57.468Z,30.20
2017-11-17T01:48:25.910Z,27.48
2017-11-17T01:50:53.561Z,28.12
2017-11-17T01:53:21.242Z,26.17
2017-11-17T01:55:49.172Z,27.65
2017-11-17T01:58:16.992Z,28.02
2017-11-17T02:00:44.800Z,29.87
2017-11-17T02:03:12.524Z,28.90
2017-11-17T02:05:41.012Z,26.87
2017-11-17T02:08:09.597Z,28.65
2017-11-17T02:10:37.348Z,27.92
2017-11-17T02:13:05.037Z,27.45
2017-11-17T02:15:32.759Z,26.33
2017-11-17T02:18:00.952Z,27.00
2017-11-17T02:20:28.701Z,26.95
2017-11-17T02:22:56.327Z,27.27
2017-11-17T02:25:24.039Z,27.10
2017-11-17T02:27:51.701Z,26.87
2017-11-17T02:30:20.165Z,28.67
2017-11-17T02:32:47.851Z,26.73
2017-11-17T02:35:16.286Z,25.30
2017-11-17T02:37:44.000Z,26.15
2017-11-17T02:40:12.421Z,28.15
2017-11-17T02:42:40.121Z,28.50
2017-11-17T02:45:08.820Z,28.87
2017-11-17T02:47:36.582Z,29.00
2017-11-17T02:50:04.287Z,25.75
2017-11-17T02:52:32.068Z,27.90
2017-11-17T02:54:59.761Z,27.35
2017-11-17T02:57:28.414Z,26.73
2017-11-17T02:59:56.848Z,27.13
2017-11-17T03:02:24.530Z,27.48
2017-11-17T03:04:52.273Z,25.70
2017-11-17T03:07:19.935Z,25.98
2017-11-17T03:09:47.617Z,25.23
2017-11-17T03:12:15.338Z,24.52
2017-11-17T03:14:42.987Z,25.75
2017-11-17T03:17:10.586Z,27.42
2017-11-17T03:19:39.246Z,26.23
2017-11-17T03:22:07.643Z,28.17
2017-11-17T03:24:35.337Z,26.85
2017-11-17T03:27:03.044Z,28.80
2017-11-17T03:29:30.715Z,27.55
2017-11-17T03:31:58.372Z,29.08
2017-11-17T03:34:26.050Z,27.73
2017-11-17T03:36:53.690Z,27.77
2017-11-17T03:39:21.305Z,28.10
2017-11-17T03:41:49.734Z,26.40
2017-11-17T03:44:17.406Z,29.05
2017-11-17T03:46:45.063Z,26.20
2017-11-17T03:49:12.719Z,28.00
2017-11-17T03:51:40.344Z,27.40
2017-11-17T03:54:08.022Z,29.90
2017-11-17T03:56:36.517Z,29.77
2017-11-17T03:59:04.193Z,28.95
2017-11-17T04:01:31.841Z,29.42
2017-11-17T04:04:00.338Z,26.62
2017-11-17T04:06:28.771Z,27.37
2017-11-17T04:08:56.466Z,26.85
2017-11-17T04:11:24.095Z,29.65
2017-11-17T04:13:51.785Z,29.37
2017-11-17T04:16:19.461Z,26.12
2017-11-17T04:18:47.113Z,27.60
2017-11-17T04:21:14.762Z,26.83
2017-11-17T04:23:42.433Z,26.65
2017-11-17T04:26:10.126Z,26.62
2017-11-17T04:28:38.597Z,26.17
2017-11-17T04:31:06.266Z,28.67
2017-11-17T04:33:34.970Z,29.92
2017-11-17T04:36:02.919Z,27.98
2017-11-17T04:38:32.485Z,28.20
2017-11-17T04:41:00.990Z,27.35
2017-11-17T04:43:28.894Z,26.48
2017-11-17T04:45:56.695Z,27.95
2017-11-17T04:48:24.542Z,32.35
2017-11-17T04:50:53.610Z,28.27
2017-11-17T04:53:21.345Z,27.37
2017-11-17T04:55:50.126Z,27.50
2017-11-17T04:58:18.804Z,28.90
2017-11-17T05:00:56.196Z,29.83
2017-11-17T05:03:24.043Z,30.25
2017-11-17T05:05:52.934Z,30.92
2017-11-17T05:08:22.983Z,29.75
2017-11-17T05:10:51.054Z,30.02
2017-11-17T05:13:21.407Z,30.52
2017-11-17T05:15:52.178Z,29.30
2017-11-17T05:18:28.361Z,26.85
2017-11-17T05:21:04.930Z,29.12
2017-11-17T05:23:35.504Z,26.35
2017-11-17T05:26:14.125Z,27.37
2017-11-17T05:31:31.351Z,27.15
2017-11-17T05:34:11.704Z,26.40
2017-11-17T05:36:40.732Z,27.75
2017-11-17T05:39:17.914Z,26.30
2017-11-17T05:42:17.642Z,29.55
2017-11-17T05:44:59.795Z,26.20
2017-11-17T05:47:28.928Z,27.42
2017-11-17T05:49:56.605Z,25.52
2017-11-17T05:52:27.066Z,29.12
2017-11-17T05:54:55.566Z,28.70
2017-11-17T05:57:24.847Z,27.73
2017-11-17T05:59:53.535Z,29.17
2017-11-17T06:02:29.183Z,27.60
2017-11-17T06:05:02.915Z,28.92
2017-11-17T06:07:46.492Z,28.33
2017-11-17T06:10:22.442Z,29.30
2017-11-17T06:12:58.076Z,28.80
2017-11-17T06:15:26.443Z,29.98
2017-11-17T06:17:54.839Z,27.73
2017-11-17T06:20:23.249Z,28.73
2017-11-17T06:22:50.968Z,26.83
2017-11-17T06:25:35.265Z,29.08
2017-11-17T06:28:03.990Z,29.33
2017-11-17T06:30:32.534Z,29.40
2017-11-17T06:33:00.221Z,29.73
2017-11-17T06:35:27.859Z,30.88
2017-11-17T06:37:57.488Z,27.13
2017-11-17T06:40:45.877Z,28.58
2017-11-17T06:46:16.928Z,29.70
2017-11-17T06:48:46.259Z,30.10
2017-11-17T06:51:16.788Z,30.10
2017-11-17T06:53:44.698Z,26.73
2017-11-17T06:56:13.260Z,28.25
2017-11-17T06:58:44.870Z,28.12
2017-11-17T07:01:13.037Z,27.45
2017-11-17T07:03:41.735Z,27.80
2017-11-17T07:06:14.831Z,26.42
2017-11-17T07:08:43.271Z,30.40
2017-11-17T09:47:32.134Z,27.52
2017-11-17T09:50:17.236Z,27.50
2017-11-17T09:52:50.035Z,28.70
2017-11-17T09:55:18.110Z,27.20
2017-11-17T09:57:45.991Z,28.17
2017-11-17T10:00:14.554Z,26.10
2017-11-17T10:02:42.462Z,25.27
2017-11-17T10:05:12.033Z,26.95
2017-11-17T10:07:39.860Z,25.75
2017-11-17T10:10:08.025Z,27.17
2017-11-17T10:12:35.936Z,26.27
2017-11-17T10:15:03.858Z,27.77
2017-11-17T10:17:31.882Z,24.65
2017-11-17T10:19:59.765Z,26.75
2017-11-17T10:22:27.858Z,25.10
2017-11-17T10:24:56.475Z,27.40
2017-11-17T10:27:27.831Z,26.12
2017-11-17T10:29:57.313Z,27.85
2017-11-17T10:32:26.861Z,26.00
2017-11-17T10:35:02.139Z,27.23
2017-11-17T10:37:34.300Z,26.90
2017-11-17T10:40:05.536Z,25.70
2017-11-17T10:42:46.378Z,26.62
2017-11-17T10:45:14.434Z,25.67
2017-11-17T10:47:42.796Z,26.60
2017-11-17T10:50:12.713Z,26.97
2017-11-17T10:52:40.801Z,28.45
2017-11-17T10:55:09.088Z,27.80
2017-11-17T10:57:37.451Z,26.70
2017-11-17T11:00:06.519Z,26.73
2017-11-17T11:02:34.621Z,28.97
2017-11-17T11:05:02.769Z,29.30
2017-11-17T11:07:33.381Z,28.27
2017-11-17T11:10:07.252Z,27.80
2017-11-17T11:12:35.962Z,27.77
2017-11-17T11:15:04.409Z,27.10
2017-11-17T11:17:33.102Z,26.92
2017-11-17T11:20:00.913Z,24.10
2017-11-17T11:22:28.546Z,26.83
2017-11-17T11:24:58.073Z,27.65
2017-11-17T11:27:27.670Z,26.15
2017-11-17T11:29:55.311Z,26.90
2017-11-17T11:32:23.000Z,26.87
2017-11-17T11:34:50.687Z,25.60
2017-11-17T11:37:18.478Z,24.92
2017-11-17T11:39:47.539Z,23.62
2017-11-17T11:42:15.402Z,26.25
2017-11-17T11:44:44.005Z,26.55
2017-11-17T11:47:11.705Z,27.75
2017-11-17T11:49:40.144Z,27.92
2017-11-17T11:52:07.874Z,25.98
2017-11-17T11:54:36.544Z,25.00
2017-11-17T11:57:05.028Z,25.25
2017-11-17T11:59:34.179Z,27.15
2017-11-17T12:02:01.866Z,28.45
2017-11-17T12:04:29.479Z,29.50
2017-11-17T12:06:57.193Z,27.45
2017-11-17T12:09:24.856Z,26.65
2017-11-17T12:11:52.565Z,28.33
2017-11-17T12:14:21.048Z,29.37
2017-11-17T12:16:48.692Z,28.27
2017-11-17T12:19:16.310Z,27.25
2017-11-17T12:21:44.117Z,27.73
2017-11-17T12:24:11.887Z,26.75
2017-11-17T12:26:39.605Z,27.40
2017-11-17T12:29:07.620Z,30.20
2017-11-17T12:31:35.331Z,30.27
2017-11-17T12:34:03.792Z,27.65
2017-11-17T12:36:31.452Z,29.48
2017-11-17T12:38:59.089Z,27.30
2017-11-17T12:41:26.751Z,27.30
2017-11-17T12:43:54.453Z,29.98
2017-11-17T12:46:22.999Z,28.48
2017-11-17T12:48:50.639Z,31.42
2017-11-17T12:51:19.158Z,30.40
2017-11-17T12:53:46.858Z,31.27
2017-11-17T12:56:14.555Z,30.90
2017-11-17T12:58:43.300Z,32.80
2017-11-17T13:01:11.072Z,32.83
2017-11-17T13:03:38.720Z,31.23
2017-11-17T13:06:08.515Z,32.03
2017-11-17T13:08:36.349Z,31.60
2017-11-17T13:11:04.004Z,31.25
2017-11-17T13:13:31.646Z,29.35
2017-11-17T13:15:59.732Z,30.48
2017-11-17T13:18:27.378Z,30.15
2017-11-17T13:20:55.037Z,31.98
2017-11-17T13:23:22.715Z,30.73
2017-11-17T13:25:50.412Z,33.92
2017-11-17T13:28:18.078Z,31.50
2017-11-17T13:30:45.691Z,28.05
2017-11-17T13:33:13.365Z,30.12
2017-11-17T13:35:41.034Z,29.42
2017-11-17T13:38:08.726Z,54.05
2017-11-17T13:40:36.368Z,35.97
2017-11-17T13:43:04.065Z,32.80
2017-11-17T13:45:31.723Z,34.20
2017-11-17T13:47:59.415Z,32.47
2017-11-17T13:50:27.084Z,30.77
2017-11-17T13:52:54.726Z,51.05
2017-11-17T13:55:22.431Z,51.67
2017-11-17T13:57:50.834Z,30.12
2017-11-17T14:00:19.337Z,31.33
2017-11-17T14:02:46.988Z,29.05
2017-11-17T14:05:15.411Z,30.37
2017-11-17T14:07:43.135Z,29.65
2017-11-17T14:10:11.802Z,30.80
2017-11-17T14:12:40.617Z,31.67
2017-11-17T14:15:09.291Z,30.10
2017-11-17T14:17:37.889Z,29.00
2017-11-17T14:20:07.007Z,32.40
2017-11-17T14:22:34.957Z,31.90
2017-11-17T14:25:03.651Z,30.90
2017-11-17T14:27:32.249Z,31.98
2017-11-17T14:30:00.202Z,34.45
2017-11-17T14:32:28.618Z,33.13
2017-11-17T14:34:56.292Z,32.20
2017-11-17T14:37:24.944Z,31.00
2017-11-17T14:39:53.566Z,34.75
2017-11-17T14:42:21.430Z,32.72
2017-11-17T14:44:49.380Z,33.10
2017-11-17T14:47:18.334Z,30.08
2017-11-17T14:49:46.172Z,31.02
2017-11-17T14:52:14.670Z,32.97
2017-11-17T14:54:42.397Z,31.87
2017-11-17T14:57:10.145Z,32.50
2017-11-17T14:59:38.016Z,31.73
2017-11-17T15:02:05.713Z,33.47
2017-11-17T15:04:33.402Z,31.77
2017-11-17T15:07:01.118Z,32.78
2017-11-17T15:09:29.695Z,29.35
2017-11-17T15:11:57.401Z,34.28
2017-11-17T15:14:28.636Z,31.62
2017-11-17T15:16:56.338Z,31.70
2017-11-17T15:19:24.058Z,31.67
2017-11-17T15:21:51.721Z,33.22
2017-11-17T15:24:19.421Z,34.10
2017-11-17T15:26:47.096Z,31.90
2017-11-17T15:29:14.780Z,29.55
2017-11-17T15:31:42.427Z,31.75
2017-11-17T15:34:10.145Z,31.25
2017-11-17T15:36:37.843Z,29.75
2017-11-17T15:39:05.566Z,29.80
2017-11-17T15:41:33.181Z,30.05
2017-11-17T15:44:00.837Z,28.10
2017-11-17T15:46:28.582Z,30.62
2017-11-17T15:48:56.366Z,29.10
2017-11-17T15:51:24.429Z,30.23
2017-11-17T15:53:53.263Z,31.75
2017-11-17T15:56:21.772Z,30.48
2017-11-17T15:58:49.515Z,31.65
2017-11-17T16:01:17.246Z,31.85
2017-11-17T16:03:44.967Z,32.65
2017-11-17T16:06:15.024Z,32.47
2017-11-17T16:08:44.043Z,32.25
2017-11-17T16:11:12.033Z,31.12
2017-11-17T16:13:40.754Z,33.33
2017-11-17T16:16:08.891Z,31.10
2017-11-17T16:18:37.626Z,32.63
2017-11-17T16:21:05.402Z,31.30
2017-11-17T16:23:34.323Z,32.75
2017-11-17T16:26:02.303Z,31.27
2017-11-17T16:28:30.284Z,32.35
2017-11-17T16:30:58.253Z,37.20
2017-11-17T16:33:26.235Z,36.42
2017-11-17T16:35:55.637Z,34.67
2017-11-17T16:38:23.571Z,33.80
2017-11-17T16:40:51.630Z,36.28
2017-11-17T16:43:20.503Z,35.50
2017-11-17T16:45:48.748Z,34.28
2017-11-17T16:48:16.744Z,36.50
2017-11-17T16:50:44.693Z,36.90
2017-11-17T16:53:12.703Z,36.25
2017-11-17T16:55:40.603Z,35.67
2017-11-17T16:58:08.485Z,36.05
2017-11-17T17:00:37.417Z,35.63
2017-11-17T17:03:05.253Z,34.13
2017-11-17T17:05:32.876Z,32.50
2017-11-17T17:08:00.548Z,31.10
2017-11-17T17:10:28.389Z,32.22
2017-11-17T17:12:56.143Z,31.90
2017-11-17T17:15:24.560Z,32.20
2017-11-17T17:17:52.233Z,31.50
2017-11-17T17:20:19.930Z,29.37
2017-11-17T17:22:47.582Z,32.58
2017-11-17T17:25:15.201Z,31.23
2017-11-17T17:27:42.968Z,30.00
2017-11-17T17:30:11.389Z,30.42
2017-11-17T17:32:39.138Z,33.95
2017-11-17T17:35:06.699Z,32.00
2017-11-17T17:37:34.265Z,32.97
2017-11-17T17:40:01.895Z,31.62
2017-11-17T17:42:29.507Z,33.15
2017-11-17T17:44:57.117Z,30.60
2017-11-17T17:47:24.720Z,34.60
2017-11-17T17:49:52.323Z,34.95
2017-11-17T17:52:19.926Z,33.67
2017-11-17T17:54:47.513Z,35.33
2017-11-17T17:57:15.103Z,33.17
2017-11-17T17:59:42.685Z,33.83
2017-11-17T18:02:10.350Z,33.22
2017-11-17T18:04:38.050Z,33.53
2017-11-17T18:07:05.776Z,36.08
2017-11-17T18:09:33.436Z,34.30
2017-11-17T18:12:01.048Z,34.92
2017-11-17T18:14:28.621Z,37.25
2017-11-17T18:16:56.269Z,32.92
2017-11-17T18:19:23.889Z,36.80
2017-11-17T18:21:51.488Z,35.53
2017-11-17T18:24:19.099Z,36.58
2017-11-17T18:26:47.483Z,36.67
2017-11-17T18:29:15.798Z,35.97
2017-11-17T18:31:43.706Z,39.25
2017-11-17T18:34:11.551Z,37.08
2017-11-17T18:36:39.203Z,36.50
2017-11-17T18:39:07.954Z,39.10
2017-11-17T18:41:35.858Z,37.10
2017-11-17T18:44:03.723Z,34.97
2017-11-17T18:46:31.367Z,35.40
2017-11-17T18:48:59.037Z,37.40
2017-11-17T18:51:26.744Z,37.65
2017-11-17T18:53:54.483Z,34.90
2017-11-17T18:56:22.140Z,35.70
2017-11-17T18:58:49.689Z,37.47
2017-11-17T19:01:17.417Z,35.45
2017-11-17T19:03:45.097Z,32.58
2017-11-17T19:06:12.870Z,35.80
2017-11-17T19:08:40.836Z,35.97
2017-11-17T19:11:08.453Z,31.70
2017-11-17T19:13:36.157Z,34.40
2017-11-17T19:16:03.919Z,32.10
2017-11-17T19:18:31.571Z,32.47
2017-11-17T19:20:59.885Z,31.37
2017-11-17T19:23:27.571Z,31.48
2017-11-17T19:25:55.213Z,32.80
2017-11-17T19:28:22.826Z,34.22
2017-11-17T19:30:51.275Z,33.08
2017-11-17T19:33:18.923Z,31.40
2017-11-17T19:35:46.671Z,32.65
2017-11-17T19:38:14.363Z,33.40
2017-11-17T19:40:41.975Z,32.13
2017-11-17T19:43:09.584Z,33.13
2017-11-17T19:45:38.131Z,34.40
2017-11-17T19:48:05.921Z,32.95
2017-11-17T19:50:33.543Z,32.42
2017-11-17T19:53:01.157Z,31.40
2017-11-17T19:55:29.700Z,33.95
2017-11-17T19:57:57.284Z,34.00
2017-11-17T20:00:24.887Z,33.90
2017-11-17T20:02:52.439Z,29.87
2017-11-17T20:05:20.099Z,35.10
2017-11-17T20:07:47.698Z,32.80
2017-11-17T20:10:15.381Z,32.80
2017-11-17T20:12:42.997Z,35.30
2017-11-17T20:15:11.618Z,33.28
2017-11-17T20:17:39.318Z,33.60
2017-11-17T20:20:07.057Z,33.13
2017-11-17T20:22:34.658Z,30.50
2017-11-17T20:25:02.314Z,31.92
2017-11-17T20:27:30.500Z,32.58
2017-11-17T20:29:58.058Z,34.55
2017-11-17T20:32:25.643Z,34.90
2017-11-17T20:34:53.263Z,34.20
2017-11-17T20:37:20.881Z,33.08
2017-11-17T20:39:48.483Z,34.25
2017-11-17T20:42:17.049Z,32.35
2017-11-17T20:44:44.645Z,34.53
2017-11-17T20:47:12.239Z,33.75
2017-11-17T20:49:39.834Z,34.45
2017-11-17T20:52:08.211Z,32.25
2017-11-17T20:54:35.785Z,34.00
2017-11-17T20:57:03.346Z,33.70
2017-11-17T20:59:30.972Z,35.05
2017-11-17T21:01:58.540Z,36.40
2017-11-17T21:04:26.178Z,38.20
2017-11-17T21:06:53.735Z,34.20
2017-11-17T21:09:21.319Z,38.20
2017-11-17T21:11:48.967Z,39.40
2017-11-17T21:14:16.546Z,36.15
2017-11-17T21:16:44.113Z,36.47
2017-11-17T21:19:11.713Z,35.72
2017-11-17T21:21:39.308Z,36.97
2017-11-17T21:24:07.670Z,32.28
2017-11-17T21:26:35.291Z,36.33
2017-11-17T21:29:02.892Z,34.85
2017-11-17T21:31:30.512Z,35.85
2017-11-17T21:33:58.161Z,35.55
2017-11-17T21:36:26.541Z,33.40
2017-11-17T21:38:54.925Z,34.80
2017-11-17T21:41:23.265Z,34.20
2017-11-17T21:43:51.651Z,35.70
2017-11-17T21:46:19.232Z,34.35
2017-11-17T21:48:46.833Z,34.70
2017-11-17T21:51:15.196Z,35.95
2017-11-17T21:53:42.795Z,34.97
2017-11-17T21:56:10.373Z,35.90
2017-11-17T21:58:37.964Z,36.28
2017-11-17T22:01:05.548Z,35.50
2017-11-17T22:03:33.136Z,35.78
2017-11-17T22:06:01.781Z,35.90
2017-11-17T22:08:29.355Z,35.58
2017-11-17T22:10:56.920Z,35.67
2017-11-17T22:13:24.515Z,34.08
2017-11-17T22:15:53.265Z,37.22
2017-11-17T22:18:20.832Z,36.95
2017-11-17T22:20:48.435Z,36.28
2017-11-17T22:23:17.083Z,34.60
2017-11-17T22:25:44.712Z,35.40
2017-11-17T22:28:12.287Z,37.85
2017-11-17T22:30:40.723Z,36.90
2017-11-17T22:33:08.323Z,35.80
2017-11-17T22:35:36.654Z,34.35
2017-11-17T22:38:04.256Z,35.75
2017-11-17T22:40:31.986Z,34.42
2017-11-17T22:42:59.548Z,34.95
2017-11-17T22:45:28.134Z,33.50
2017-11-17T22:47:56.142Z,32.25
2017-11-17T22:50:23.746Z,37.95
2017-11-17T22:52:52.114Z,35.72
2017-11-17T22:55:20.778Z,38.15
2017-11-17T22:57:48.879Z,33.40
2017-11-17T23:00:17.407Z,36.00
2017-11-17T23:02:46.367Z,32.92
2017-11-17T23:05:13.969Z,33.10
2017-11-17T23:07:42.559Z,36.00
2017-11-17T23:10:10.127Z,37.10
2017-11-17T23:12:37.739Z,34.30
2017-11-17T23:15:06.125Z,35.35
2017-11-17T23:17:33.710Z,36.88
2017-11-17T23:20:01.352Z,35.67
2017-11-17T23:22:29.016Z,33.53
2017-11-17T23:24:57.025Z,32.53
2017-11-17T23:27:25.560Z,34.90
2017-11-17T23:29:53.503Z,33.13
2017-11-17T23:32:21.391Z,35.60
2017-11-17T23:34:49.355Z,36.38
2017-11-17T23:37:18.144Z,35.58
2017-11-17T23:39:47.689Z,36.22
2017-11-17T23:42:15.303Z,36.28
2017-11-17T23:44:45.369Z,36.45
2017-11-17T23:47:13.399Z,38.17
2017-11-17T23:49:41.024Z,35.95
2017-11-17T23:52:09.360Z,38.13
2017-11-17T23:54:38.308Z,35.67
2017-11-17T23:57:06.204Z,35.42
2017-11-17T23:59:33.804Z,36.22
